Time;durP1;ratioP1;P1;durP2;ratioP2;P2;SDS_P1;SDS_P2;PMS_P1;PMS_P2;Temp;Humidity;BMP_temperature;BMP_pressure;BME280_temperature;BME280_humidity;BME280_pressure;Samples;Min_cycle;Max_cycle;Signal;HPM_P1;HPM_P2
2023/04/13 00:00:20;;;;;;;3.40;0.90;;;;;;;18.34;58.69;99219.34;5048037;28;20196;-60
2023/04/13 00:02:52;;;;;;;3.53;1.00;;;;;;;18.33;58.37;99217.69;5050288;28;20194;-59
2023/04/13 00:05:18;;;;;;;2.37;0.83;;;;;;;18.34;58.33;99216.47;5071112;28;20178;-59
2023/04/13 00:07:43;;;;;;;2.33;1.00;;;;;;;18.33;58.31;99220.56;5090402;28;20478;-59
2023/04/13 00:10:09;;;;;;;3.40;1.33;;;;;;;18.33;58.53;99220.56;5072346;28;20240;-59
2023/04/13 00:12:39;;;;;;;3.50;1.17;;;;;;;18.30;58.55;99212.75;5069208;28;20187;-60
2023/04/13 00:15:05;;;;;;;2.47;1.00;;;;;;;18.29;58.50;99216.84;5029058;28;20203;-60
2023/04/13 00:17:32;;;;;;;3.00;1.00;;;;;;;18.31;58.38;99210.72;5049284;28;20418;-60
2023/04/13 00:20:07;;;;;;;1.97;0.90;;;;;;;18.30;58.42;99212.75;5048963;28;20453;-60
2023/04/13 00:22:32;;;;;;;3.50;1.20;;;;;;;18.29;58.48;99211.13;5032552;28;20757;-59
2023/04/13 00:24:58;;;;;;;2.90;1.10;;;;;;;18.29;58.68;99207.44;5060919;28;20429;-60
2023/04/13 00:27:26;;;;;;;2.10;1.07;;;;;;;18.29;58.51;99213.97;5052619;28;20195;-60
2023/04/13 00:29:55;;;;;;;4.50;1.00;;;;;;;18.28;58.64;99212.34;5055804;28;20194;-60
2023/04/13 00:32:20;;;;;;;2.00;1.00;;;;;;;18.27;58.64;99216.41;5061514;28;20430;-59
2023/04/13 00:34:46;;;;;;;2.27;1.07;;;;;;;18.29;58.53;99210.28;5031494;28;20461;-60
2023/04/13 00:37:13;;;;;;;2.00;1.20;;;;;;;18.28;58.76;99212.34;5055161;28;20195;-60
2023/04/13 00:39:39;;;;;;;2.77;1.00;;;;;;;18.26;59.07;99219.69;5061024;28;20724;-60
2023/04/13 00:42:04;;;;;;;1.70;0.93;;;;;;;18.24;58.44;99220.09;5063776;28;20449;-60
2023/04/13 00:44:30;;;;;;;2.20;0.90;;;;;;;18.28;58.40;99212.34;5054281;28;20175;-59
2023/04/13 00:46:55;;;;;;;2.30;1.47;;;;;;;18.33;58.36;99214.84;5069722;28;20206;-60
2023/04/13 00:49:21;;;;;;;2.00;1.00;;;;;;;18.29;58.37;99216.84;5047487;28;20216;-60
2023/04/13 00:51:47;;;;;;;2.27;1.07;;;;;;;18.30;58.36;99220.50;5051489;28;20641;-60
2023/04/13 00:54:13;;;;;;;2.30;0.90;;;;;;;18.34;58.51;99227.91;5044810;28;20195;-60
2023/04/13 00:56:41;;;;;;;1.80;0.80;;;;;;;18.35;58.30;99223.00;5049924;28;20175;-60
2023/04/13 00:59:07;;;;;;;2.77;1.20;;;;;;;18.36;58.18;99224.66;5049068;28;20223;-60
2023/04/13 01:01:33;;;;;;;2.30;0.90;;;;;;;18.35;58.41;99217.28;5061434;28;20832;-60
2023/04/13 01:03:58;;;;;;;1.77;0.80;;;;;;;18.36;58.37;99222.59;5069614;28;20406;-59
2023/04/13 01:06:32;;;;;;;2.03;1.13;;;;;;;18.36;58.25;99213.22;5060726;28;20249;-59
2023/04/13 01:09:07;;;;;;;3.20;1.07;;;;;;;18.34;58.30;99212.78;5032130;28;20536;-60
2023/04/13 01:11:53;;;;;;;4.80;0.97;;;;;;;18.36;58.28;99208.31;5032460;28;21379;-60
2023/04/13 01:14:23;;;;;;;2.43;0.90;;;;;;;18.36;57.93;99211.16;5049422;28;20418;-60
2023/04/13 01:17:01;;;;;;;2.07;1.00;;;;;;;18.35;58.25;99206.66;5031394;28;20414;-60
2023/04/13 01:19:44;;;;;;;2.93;1.00;;;;;;;18.32;58.34;99209.50;5049261;28;20445;-61
2023/04/13 01:22:09;;;;;;;3.17;1.00;;;;;;;18.28;58.55;99206.66;5052170;28;20831;-60
2023/04/13 01:25:21;;;;;;;2.90;0.90;;;;;;;18.36;58.43;99210.34;5059016;28;20480;-60
2023/04/13 01:28:04;;;;;;;2.03;0.90;;;;;;;18.34;58.50;99207.91;5033293;28;20182;-60
2023/04/13 01:30:31;;;;;;;2.43;1.10;;;;;;;18.33;58.21;99203.41;5056806;28;20852;-60
2023/04/13 01:32:58;;;;;;;2.23;1.03;;;;;;;18.33;58.48;99202.59;5031601;28;20418;-60
2023/04/13 01:35:24;;;;;;;2.20;0.87;;;;;;;18.29;58.54;99202.56;5049466;28;20454;-60
2023/04/13 01:37:50;;;;;;;3.33;1.93;;;;;;;18.27;58.46;99204.97;5050505;28;20935;-60
2023/04/13 01:40:16;;;;;;;2.60;1.00;;;;;;;18.28;58.67;99200.94;5048934;28;21198;-60
2023/04/13 01:42:42;;;;;;;2.07;0.90;;;;;;;18.24;58.81;99194.38;5051546;28;20501;-60
2023/04/13 01:45:31;;;;;;;2.57;1.10;;;;;;;18.24;58.57;99202.94;5053318;28;20187;-60
2023/04/13 01:48:18;;;;;;;2.37;1.10;;;;;;;18.22;58.67;99199.66;5052668;28;20183;-60
2023/04/13 01:50:45;;;;;;;2.03;1.03;;;;;;;18.23;58.85;99201.31;5052673;28;20402;-60
2023/04/13 01:53:23;;;;;;;3.47;1.27;;;;;;;18.26;58.69;99196.84;5056003;28;20440;-60
2023/04/13 01:55:49;;;;;;;2.33;1.00;;;;;;;18.23;58.54;99198.47;5053812;28;20498;-61
2023/04/13 01:58:15;;;;;;;1.90;0.90;;;;;;;18.23;58.95;99195.63;5052210;28;20484;-60
2023/04/13 02:00:41;;;;;;;2.43;1.00;;;;;;;18.22;58.58;99202.53;5053831;28;20471;-60
2023/04/13 02:03:08;;;;;;;1.90;0.80;;;;;;;18.22;58.56;99202.53;5033734;28;20824;-60
2023/04/13 02:05:35;;;;;;;2.60;0.90;;;;;;;18.21;58.91;99212.31;5054454;28;20172;-60
2023/04/13 02:08:04;;;;;;;2.20;1.00;;;;;;;18.21;59.10;99209.47;5051439;28;20442;-61
2023/04/13 02:10:33;;;;;;;1.50;0.73;;;;;;;18.21;58.74;99208.66;5053329;28;20441;-60
2023/04/13 02:12:59;;;;;;;1.70;0.90;;;;;;;18.19;58.77;99202.53;5071553;28;20584;-60
2023/04/13 02:15:25;;;;;;;1.70;0.70;;;;;;;18.17;58.66;99214.34;5072576;28;21294;-60
2023/04/13 02:17:51;;;;;;;2.80;1.10;;;;;;;18.19;58.79;99219.66;5071598;28;20944;-60
2023/04/13 02:20:16;;;;;;;2.20;1.00;;;;;;;18.21;58.57;99228.66;5066092;28;20442;-60
2023/04/13 02:22:42;;;;;;;2.00;0.93;;;;;;;18.21;58.57;99231.53;5067208;28;20594;-60
2023/04/13 02:25:10;;;;;;;1.90;0.80;;;;;;;18.22;58.50;99225.38;5083052;28;20193;-61
2023/04/13 02:27:35;;;;;;;2.73;1.00;;;;;;;18.25;58.28;99224.59;5053898;28;20398;-60
2023/04/13 02:30:01;;;;;;;1.80;0.70;;;;;;;18.29;58.37;99219.69;5071784;28;20942;-60
2023/04/13 02:32:28;;;;;;;2.00;0.80;;;;;;;18.29;58.37;99230.28;5071130;28;20179;-60
2023/04/13 02:34:54;;;;;;;1.87;0.97;;;;;;;18.29;58.40;99230.28;5035220;28;20223;-60
2023/04/13 02:37:19;;;;;;;2.23;1.00;;;;;;;18.31;58.21;99234.38;5054723;28;20831;-60
2023/04/13 02:39:45;;;;;;;2.33;1.20;;;;;;;18.30;58.46;99244.19;5071366;28;20580;-60
2023/04/13 02:42:10;;;;;;;2.40;1.00;;;;;;;18.29;58.50;99236.84;5071749;28;20667;-60
2023/04/13 02:44:37;;;;;;;1.80;0.90;;;;;;;18.30;58.33;99232.75;5071695;28;20175;-60
2023/04/13 02:47:03;;;;;;;2.60;1.10;;;;;;;18.29;58.38;99233.16;5071123;28;20245;-60
2023/04/13 02:49:29;;;;;;;1.60;0.87;;;;;;;18.30;58.21;99227.03;5071700;28;20420;-60
2023/04/13 02:51:54;;;;;;;1.67;0.90;;;;;;;18.30;58.34;99232.75;5071503;28;20908;-60
2023/04/13 02:54:20;;;;;;;1.50;0.70;;;;;;;18.28;58.34;99235.22;5053435;28;20190;-61
2023/04/13 02:57:14;;;;;;;3.00;1.00;;;;;;;18.23;58.57;99238.47;5070266;28;20168;-60
2023/04/13 02:59:39;;;;;;;1.80;0.90;;;;;;;18.27;58.60;99227.84;5051157;28;20238;-60
2023/04/13 03:02:05;;;;;;;1.97;0.90;;;;;;;18.27;58.46;99219.25;5053274;28;20418;-60
2023/04/13 03:04:31;;;;;;;2.60;0.90;;;;;;;18.26;58.43;99214.78;5053322;28;20191;-61
2023/04/13 03:06:57;;;;;;;1.93;1.00;;;;;;;18.27;58.49;99227.03;5072883;28;20532;-60
2023/04/13 03:09:24;;;;;;;1.90;0.90;;;;;;;18.24;58.60;99227.84;5091495;28;20201;-60
2023/04/13 03:11:50;;;;;;;3.30;1.20;;;;;;;18.23;58.61;99220.50;5053288;28;20459;-59
2023/04/13 03:14:20;;;;;;;2.07;0.67;;;;;;;18.20;58.57;99224.16;5084637;28;20459;-60
2023/04/13 03:16:47;;;;;;;2.27;0.83;;;;;;;18.20;58.75;99227.00;5073886;28;20456;-59
2023/04/13 03:19:13;;;;;;;1.57;0.70;;;;;;;18.21;58.65;99223.75;5091101;28;20467;-60
2023/04/13 03:21:40;;;;;;;2.30;1.10;;;;;;;18.19;58.86;99226.22;5088848;28;20404;-60
2023/04/13 03:24:06;;;;;;;1.67;0.70;;;;;;;18.18;58.44;99224.59;5084487;28;20191;-61
2023/04/13 03:26:31;;;;;;;1.50;0.83;;;;;;;18.19;58.63;99231.91;5070700;28;20495;-60
2023/04/13 03:28:57;;;;;;;2.30;1.00;;;;;;;18.19;58.69;99229.06;5066549;28;21028;-60
2023/04/13 03:31:22;;;;;;;2.70;1.03;;;;;;;18.17;58.61;99220.06;5050528;28;20184;-60
2023/04/13 03:33:49;;;;;;;1.60;0.87;;;;;;;18.20;58.43;99219.25;5049286;28;20214;-61
2023/04/13 03:36:15;;;;;;;2.10;0.87;;;;;;;18.20;58.72;99224.16;5067736;28;20802;-61
2023/04/13 03:38:40;;;;;;;2.20;0.90;;;;;;;18.17;58.90;99225.78;5089476;28;20400;-60
2023/04/13 03:41:06;;;;;;;1.77;0.77;;;;;;;18.16;58.58;99227.00;5085986;28;20557;-60
2023/04/13 03:43:32;;;;;;;2.10;0.90;;;;;;;18.15;58.74;99224.53;5069433;28;20234;-60
2023/04/13 03:45:57;;;;;;;1.40;0.60;;;;;;;18.13;58.66;99227.84;5069389;28;20147;-60
2023/04/13 03:48:23;;;;;;;2.07;0.93;;;;;;;18.14;58.55;99228.63;5085621;28;20182;-60
2023/04/13 03:50:48;;;;;;;1.97;0.90;;;;;;;18.17;58.70;99231.50;5090700;28;20166;-60
2023/04/13 03:53:14;;;;;;;1.90;0.80;;;;;;;18.17;58.53;99225.78;5092346;28;20171;-60
2023/04/13 03:55:39;;;;;;;1.60;0.70;;;;;;;18.19;58.52;99226.22;5072979;28;20213;-60
2023/04/13 03:58:06;;;;;;;2.70;1.00;;;;;;;18.21;58.42;99235.19;5071756;28;20230;-60
2023/04/13 04:00:31;;;;;;;1.97;0.77;;;;;;;18.23;58.33;99227.03;5070265;28;20175;-61
2023/04/13 04:02:56;;;;;;;1.70;0.80;;;;;;;18.24;58.19;99227.84;5069222;28;20406;-60
2023/04/13 04:05:22;;;;;;;3.27;1.33;;;;;;;18.27;58.07;99227.84;5071836;28;20183;-60
2023/04/13 04:07:47;;;;;;;1.80;0.93;;;;;;;18.27;58.30;99227.03;5089413;28;20722;-60
2023/04/13 04:10:13;;;;;;;1.70;0.90;;;;;;;18.23;58.23;99227.03;5072252;28;20611;-60
2023/04/13 04:12:38;;;;;;;2.63;0.90;;;;;;;18.23;58.28;99232.75;5069122;28;20631;-60
2023/04/13 04:15:04;;;;;;;1.87;0.80;;;;;;;18.22;58.32;99228.25;5075319;28;20209;-60
2023/04/13 04:17:30;;;;;;;1.60;0.77;;;;;;;18.22;58.33;99236.81;5087874;28;20272;-60
2023/04/13 04:19:55;;;;;;;2.33;0.83;;;;;;;18.24;58.33;99236.41;5069674;28;20254;-61
2023/04/13 04:22:21;;;;;;;2.03;1.13;;;;;;;18.24;58.11;99237.25;5069821;28;20212;-60
2023/04/13 04:24:46;;;;;;;1.97;0.67;;;;;;;18.23;58.08;99249.06;5079228;28;20178;-60
2023/04/13 04:27:13;;;;;;;2.50;0.87;;;;;;;18.25;58.25;99246.59;5073270;28;20183;-60
2023/04/13 04:29:38;;;;;;;2.17;0.80;;;;;;;18.21;58.14;99252.31;5070045;28;20179;-60
2023/04/13 04:32:09;;;;;;;1.50;0.70;;;;;;;18.20;58.23;99249.84;5089819;28;20428;-61
2023/04/13 04:34:34;;;;;;;2.23;0.80;;;;;;;18.18;58.23;99253.16;5066225;28;20530;-60
2023/04/13 04:37:02;;;;;;;2.27;1.10;;;;;;;18.18;58.54;99253.16;5061713;28;20501;-60
2023/04/13 04:39:31;;;;;;;2.37;0.97;;;;;;;18.20;58.24;99261.28;5069880;28;20191;-60
2023/04/13 04:42:01;;;;;;;5.13;0.80;;;;;;;18.20;58.82;99262.13;5072798;28;20437;-59
2023/04/13 04:44:31;;;;;;;1.97;0.80;;;;;;;18.20;58.28;99267.84;5089871;28;20985;-61
2023/04/13 04:46:58;;;;;;;1.67;0.80;;;;;;;18.22;58.04;99258.88;5077917;28;20544;-60
2023/04/13 04:49:26;;;;;;;2.10;0.80;;;;;;;18.20;58.57;99261.28;5069619;28;20503;-59
2023/04/13 04:51:53;;;;;;;1.90;0.60;;;;;;;18.17;58.75;99274.34;5051846;28;20881;-60
2023/04/13 04:54:19;;;;;;;2.93;0.73;;;;;;;18.14;58.48;99280.03;5068361;28;20441;-60
2023/04/13 04:56:46;;;;;;;1.40;0.70;;;;;;;18.12;58.53;99283.31;5068519;28;20452;-60
2023/04/13 04:59:11;;;;;;;1.77;0.80;;;;;;;18.14;58.81;99291.47;5065407;28;20226;-61
2023/04/13 05:01:37;;;;;;;1.73;0.83;;;;;;;18.14;58.62;99294.31;5085320;28;20432;-61
2023/04/13 05:04:03;;;;;;;1.60;0.87;;;;;;;18.14;58.71;99297.19;5073362;28;20195;-61
2023/04/13 05:06:31;;;;;;;2.53;1.07;;;;;;;18.13;58.73;99309.84;5087915;28;20739;-61
2023/04/13 05:08:58;;;;;;;2.20;1.03;;;;;;;18.13;58.56;99309.84;5075492;28;20785;-60
2023/04/13 05:11:25;;;;;;;1.57;0.70;;;;;;;18.11;58.49;99306.56;5048739;28;20433;-60
2023/04/13 05:13:51;;;;;;;1.60;0.80;;;;;;;18.12;58.35;99311.88;5049252;28;20430;-61
2023/04/13 05:16:16;;;;;;;1.30;0.63;;;;;;;18.12;58.33;99314.72;5051132;28;20997;-61
2023/04/13 05:18:46;;;;;;;2.57;0.70;;;;;;;18.11;58.84;99320.84;5051254;28;20429;-60
2023/04/13 05:21:12;;;;;;;1.50;0.80;;;;;;;18.11;58.72;99318.81;5077537;28;20266;-60
2023/04/13 05:23:38;;;;;;;1.90;0.90;;;;;;;18.14;58.51;99315.16;5092439;28;20426;-60
2023/04/13 05:26:04;;;;;;;1.83;0.80;;;;;;;18.14;58.62;99320.88;5073043;28;20413;-60
2023/04/13 05:28:29;;;;;;;2.37;1.00;;;;;;;18.14;58.43;99320.03;5074708;28;20195;-61
2023/04/13 05:31:00;;;;;;;1.80;0.77;;;;;;;18.15;58.27;99328.22;5072973;28;20167;-61
2023/04/13 05:33:26;;;;;;;1.43;0.70;;;;;;;18.16;58.27;99335.56;5079489;28;20183;-61
2023/04/13 05:35:51;;;;;;;1.70;0.80;;;;;;;18.20;58.25;99330.69;5092900;28;20917;-60
2023/04/13 05:38:16;;;;;;;1.57;0.70;;;;;;;18.19;58.18;99337.63;5093041;28;20254;-61
2023/04/13 05:40:43;;;;;;;1.97;0.93;;;;;;;18.20;58.36;99341.28;5093041;28;20155;-61
2023/04/13 05:43:09;;;;;;;2.60;0.90;;;;;;;18.22;58.25;99350.28;5088468;28;20262;-61
2023/04/13 05:45:35;;;;;;;2.90;1.00;;;;;;;18.23;58.14;99349.06;5092799;28;20531;-61
2023/04/13 05:48:01;;;;;;;1.47;0.70;;;;;;;18.22;57.85;99345.38;5074535;28;20431;-61
2023/04/13 05:50:27;;;;;;;1.40;0.60;;;;;;;18.23;58.25;99341.31;5092851;28;20220;-61
2023/04/13 05:52:52;;;;;;;1.77;0.80;;;;;;;18.24;58.22;99350.69;5084898;28;20182;-60
2023/04/13 05:55:18;;;;;;;1.93;0.80;;;;;;;18.23;58.18;99344.16;5039667;28;20476;-61
2023/04/13 05:57:44;;;;;;;1.60;0.80;;;;;;;18.21;58.09;99355.16;5051880;28;20172;-61
2023/04/13 06:00:10;;;;;;;1.57;0.70;;;;;;;18.20;58.16;99347.81;5070832;28;20494;-60
2023/04/13 06:02:37;;;;;;;1.43;0.70;;;;;;;18.20;58.08;99347.81;5071485;28;20650;-60
2023/04/13 06:05:03;;;;;;;3.20;0.97;;;;;;;18.17;58.28;99345.75;5075300;28;21233;-60
2023/04/13 06:07:29;;;;;;;2.37;0.80;;;;;;;18.17;58.43;99356.38;5082963;28;20445;-60
2023/04/13 06:09:54;;;;;;;2.10;1.00;;;;;;;18.19;58.22;99356.78;5072300;28;20511;-60
2023/04/13 06:12:20;;;;;;;1.70;0.80;;;;;;;18.19;58.01;99357.63;5074369;28;20187;-60
2023/04/13 06:14:46;;;;;;;1.67;0.97;;;;;;;18.20;58.12;99359.25;5072025;28;20199;-60
2023/04/13 06:17:11;;;;;;;1.80;0.60;;;;;;;18.19;58.46;99360.47;5053887;28;20183;-60
2023/04/13 06:19:37;;;;;;;1.93;0.80;;;;;;;18.21;58.17;99368.66;5055135;28;20413;-61
2023/04/13 06:22:02;;;;;;;1.67;0.73;;;;;;;18.19;58.17;99374.75;5054022;28;20759;-60
2023/04/13 06:24:28;;;;;;;3.30;1.20;;;;;;;18.17;58.32;99364.94;5071934;28;20557;-61
2023/04/13 06:26:53;;;;;;;1.63;0.80;;;;;;;18.15;58.45;99370.22;5071933;28;20187;-60
2023/04/13 06:29:19;;;;;;;1.50;0.63;;;;;;;18.11;58.52;99370.22;5071546;28;20186;-61
2023/04/13 06:31:44;;;;;;;2.27;0.87;;;;;;;18.11;58.53;99367.34;5084082;28;20727;-61
2023/04/13 06:34:10;;;;;;;1.67;0.60;;;;;;;18.10;58.43;99379.19;5071514;28;20175;-60
2023/04/13 06:36:36;;;;;;;1.70;0.90;;;;;;;18.11;58.72;99378.78;5055803;28;20217;-60
2023/04/13 06:39:02;;;;;;;1.50;0.70;;;;;;;18.11;58.38;99377.97;5071518;28;20183;-59
2023/04/13 06:41:28;;;;;;;1.93;1.10;;;;;;;18.08;58.33;99373.91;5071744;28;20882;-59
2023/04/13 06:43:53;;;;;;;3.63;1.20;;;;;;;18.10;58.73;99374.28;5085501;28;20478;-60
2023/04/13 06:46:19;;;;;;;2.50;0.70;;;;;;;18.08;58.52;99371.03;5061082;28;20206;-60
2023/04/13 06:48:45;;;;;;;2.47;0.97;;;;;;;18.08;58.66;99373.91;5071371;28;20187;-60
2023/04/13 06:51:11;;;;;;;2.23;1.00;;;;;;;18.09;58.58;99364.09;5055859;28;20199;-60
2023/04/13 06:53:37;;;;;;;1.90;0.80;;;;;;;18.11;58.29;99375.94;5071342;28;20910;-61
2023/04/13 06:56:02;;;;;;;1.93;0.70;;;;;;;18.16;58.47;99371.88;5053345;28;20445;-60
2023/04/13 06:58:28;;;;;;;2.33;0.83;;;;;;;18.15;58.24;99382.47;5071039;28;20234;-60
2023/04/13 07:00:53;;;;;;;2.63;0.70;;;;;;;18.13;58.28;99375.53;5053726;28;20194;-60
2023/04/13 07:03:19;;;;;;;1.83;0.97;;;;;;;18.15;58.06;99385.34;5084394;28;20659;-60
2023/04/13 07:05:45;;;;;;;1.70;0.80;;;;;;;18.20;58.24;99382.09;5084867;28;20870;-60
2023/04/13 07:08:11;;;;;;;2.00;0.80;;;;;;;18.22;57.95;99376.00;5075828;28;20202;-61
2023/04/13 07:10:39;;;;;;;2.50;0.90;;;;;;;18.22;57.87;99376.78;5076260;28;20191;-61
2023/04/13 07:13:05;;;;;;;1.70;0.80;;;;;;;18.22;57.91;99378.84;5070065;28;20471;-60
2023/04/13 07:15:31;;;;;;;1.50;0.70;;;;;;;18.22;58.03;99371.06;5048952;28;20465;-60
2023/04/13 07:17:56;;;;;;;1.20;0.57;;;;;;;18.21;57.91;99365.78;5032839;28;20497;-60
2023/04/13 07:20:22;;;;;;;1.67;0.83;;;;;;;18.21;58.01;99377.22;5067657;28;20175;-61
2023/04/13 07:22:47;;;;;;;1.47;0.60;;;;;;;18.20;57.88;99382.09;5081569;28;20466;-60
2023/04/13 07:25:13;;;;;;;1.60;0.70;;;;;;;18.19;58.13;99374.75;5070206;28;20634;-60
2023/04/13 07:27:39;;;;;;;1.60;0.80;;;;;;;18.19;58.02;99371.91;5072990;28;20190;-60
2023/04/13 07:30:05;;;;;;;2.23;0.80;;;;;;;18.19;57.98;99369.03;5070790;28;20242;-61
2023/04/13 07:32:30;;;;;;;1.60;0.70;;;;;;;18.19;57.85;99374.75;5070634;28;20763;-61
2023/04/13 07:35:00;;;;;;;1.77;0.80;;;;;;;18.20;58.04;99367.81;5073047;28;20517;-60
2023/04/13 07:37:25;;;;;;;1.63;0.70;;;;;;;18.20;58.19;99364.13;5070663;28;20216;-61
2023/04/13 07:39:51;;;;;;;1.60;0.70;;;;;;;18.18;57.88;99369.44;5070219;28;20413;-61
2023/04/13 07:42:17;;;;;;;1.60;0.80;;;;;;;18.18;58.05;99363.72;5056808;28;20499;-61
2023/04/13 07:44:42;;;;;;;1.70;0.70;;;;;;;18.17;58.14;99374.31;5052794;28;20187;-61
2023/04/13 07:47:07;;;;;;;2.37;0.87;;;;;;;18.16;58.08;99371.88;5035388;28;20167;-61
2023/04/13 07:49:36;;;;;;;1.70;0.80;;;;;;;18.15;58.13;99375.94;5087046;28;20190;-60
2023/04/13 07:52:02;;;;;;;1.33;0.60;;;;;;;18.19;58.36;99368.22;5090466;28;20167;-61
2023/04/13 07:54:27;;;;;;;1.57;0.80;;;;;;;18.20;58.24;99370.66;5086061;28;20444;-61
2023/04/13 07:56:55;;;;;;;1.60;0.60;;;;;;;18.17;58.08;99374.31;5089962;28;20796;-60
2023/04/13 07:59:20;;;;;;;1.60;0.70;;;;;;;18.17;58.43;99379.22;5069452;28;20624;-61
2023/04/13 08:01:46;;;;;;;4.00;1.40;;;;;;;18.13;58.11;99382.06;5079131;28;20960;-60
2023/04/13 08:04:11;;;;;;;2.80;0.77;;;;;;;18.14;58.17;99375.13;5090211;28;20163;-61
2023/04/13 08:06:37;;;;;;;2.47;0.90;;;;;;;18.14;58.13;99375.13;5071889;28;20206;-61
2023/04/13 08:09:02;;;;;;;2.13;0.80;;;;;;;18.19;57.82;99377.63;5090130;28;20170;-61
2023/04/13 08:11:28;;;;;;;3.87;1.57;;;;;;;18.15;58.24;99376.78;5074794;28;20328;-61
2023/04/13 08:13:53;;;;;;;2.40;0.80;;;;;;;18.14;58.22;99380.84;5069041;28;20163;-60
2023/04/13 08:16:19;;;;;;;2.10;0.90;;;;;;;18.13;58.46;99370.66;5068932;28;20245;-61
2023/04/13 08:18:44;;;;;;;1.37;0.67;;;;;;;18.16;57.84;99369.84;5068879;28;20163;-61
2023/04/13 08:21:10;;;;;;;1.83;0.90;;;;;;;18.12;58.13;99374.69;5070799;28;20179;-61
2023/04/13 08:23:45;;;;;;;1.60;0.77;;;;;;;18.12;58.32;99369.00;5050875;28;20233;-61
2023/04/13 08:26:18;;;;;;;1.90;1.03;;;;;;;18.11;58.40;99372.28;5054040;28;20464;-61
2023/04/13 08:28:43;;;;;;;1.70;0.80;;;;;;;18.16;57.91;99371.88;5050466;28;20747;-61
2023/04/13 08:31:08;;;;;;;2.73;0.93;;;;;;;18.14;58.01;99386.56;5069357;28;20436;-61
2023/04/13 08:33:34;;;;;;;2.03;0.90;;;;;;;18.14;58.01;99385.72;5068629;28;20194;-61
2023/04/13 08:36:00;;;;;;;1.63;0.77;;;;;;;18.17;57.84;99376.38;5071406;28;20206;-61
2023/04/13 08:38:25;;;;;;;1.50;0.80;;;;;;;18.18;58.13;99390.25;5069572;28;20170;-61
2023/04/13 08:40:51;;;;;;;2.33;0.90;;;;;;;18.19;57.83;99385.34;5053107;28;20183;-60
2023/04/13 08:43:18;;;;;;;2.23;0.97;;;;;;;18.20;57.77;99390.66;5069702;28;20206;-62
2023/04/13 08:45:43;;;;;;;2.00;0.80;;;;;;;18.20;58.11;99393.53;5070324;28;20947;-61
2023/04/13 08:48:10;;;;;;;1.90;0.90;;;;;;;18.22;57.94;99398.84;5054871;28;20415;-59
2023/04/13 08:50:35;;;;;;;1.90;0.63;;;;;;;18.23;57.64;99404.16;5089339;28;20171;-59
2023/04/13 08:53:02;;;;;;;2.37;1.00;;;;;;;18.23;57.59;99398.44;5077619;28;20520;-59
2023/04/13 08:55:28;;;;;;;1.40;0.73;;;;;;;18.21;57.91;99398.00;5082746;28;20217;-59
2023/04/13 08:57:53;;;;;;;2.57;0.73;;;;;;;18.22;58.04;99404.56;5093719;28;20397;-59
2023/04/13 09:00:20;;;;;;;1.60;0.90;;;;;;;18.21;57.85;99409.44;5059098;28;20439;-59
2023/04/13 09:02:47;;;;;;;2.63;0.87;;;;;;;18.19;57.75;99411.91;5069196;28;20167;-59
2023/04/13 09:05:19;;;;;;;2.33;0.70;;;;;;;18.18;58.11;99418.00;5084026;28;20473;-59
2023/04/13 09:07:52;;;;;;;2.27;1.00;;;;;;;18.17;58.00;99422.88;5093489;28;20447;-59
2023/04/13 09:10:19;;;;;;;1.73;0.80;;;;;;;18.14;58.06;99420.84;5093534;28;21306;-59
2023/04/13 09:12:44;;;;;;;2.23;0.93;;;;;;;18.17;58.12;99417.16;5090665;28;20440;-60
2023/04/13 09:15:10;;;;;;;2.23;0.87;;;;;;;18.16;58.01;99415.53;5072995;28;20829;-60
2023/04/13 09:17:36;;;;;;;2.10;0.90;;;;;;;18.17;57.81;99433.50;5073183;28;20573;-60
2023/04/13 09:20:21;;;;;;;2.77;1.00;;;;;;;18.14;58.13;99434.28;5073284;28;20444;-59
2023/04/13 09:22:49;;;;;;;1.87;0.70;;;;;;;18.13;58.27;99436.34;5080274;28;20191;-59
2023/04/13 09:25:22;;;;;;;1.93;0.93;;;;;;;18.15;58.20;99431.03;5078773;28;20494;-60
2023/04/13 09:27:48;;;;;;;1.37;0.70;;;;;;;18.12;58.11;99434.69;5055104;28;20417;-59
2023/04/13 09:30:14;;;;;;;2.80;0.80;;;;;;;18.19;57.71;99433.91;5072685;28;20429;-60
2023/04/13 09:32:39;;;;;;;2.03;0.97;;;;;;;18.12;58.04;99431.84;5054493;28;20182;-59
2023/04/13 09:35:07;;;;;;;4.13;1.10;;;;;;;18.20;57.91;99441.25;5072635;28;20941;-60
2023/04/13 09:37:36;;;;;;;1.83;0.70;;;;;;;18.21;57.97;99438.00;5072932;28;20186;-59
2023/04/13 09:40:15;;;;;;;2.10;1.00;;;;;;;18.14;58.14;99435.13;5076295;28;21188;-60
2023/04/13 09:42:53;;;;;;;2.40;1.00;;;;;;;18.11;58.12;99441.63;5092843;28;20504;-60
2023/04/13 09:45:18;;;;;;;1.97;0.90;;;;;;;18.14;58.43;99446.56;5090953;28;20503;-59
2023/04/13 09:47:44;;;;;;;1.50;0.60;;;;;;;18.11;58.25;99441.63;5040286;28;20425;-59
2023/04/13 09:50:23;;;;;;;1.40;0.70;;;;;;;18.12;58.01;99431.84;5055004;28;20171;-58
2023/04/13 09:53:01;;;;;;;1.90;0.80;;;;;;;18.10;58.29;99437.13;5083824;28;20588;-59
2023/04/13 09:55:27;;;;;;;1.80;0.77;;;;;;;18.10;58.14;99433.44;5076525;28;20465;-59
2023/04/13 09:57:53;;;;;;;1.83;0.73;;;;;;;18.13;57.99;99439.22;5073579;28;20448;-60
2023/04/13 10:00:22;;;;;;;1.80;0.90;;;;;;;18.10;58.10;99436.31;5092547;28;20468;-59
2023/04/13 10:02:51;;;;;;;1.70;0.80;;;;;;;18.13;57.90;99441.22;5092069;28;20198;-59
2023/04/13 10:05:18;;;;;;;3.10;1.10;;;;;;;18.13;58.05;99433.50;5091641;28;20405;-59
2023/04/13 10:07:44;;;;;;;1.97;0.77;;;;;;;18.13;58.04;99444.91;5086774;28;20992;-60
2023/04/13 10:10:10;;;;;;;3.03;0.80;;;;;;;18.14;57.84;99437.16;5073584;28;20419;-60
2023/04/13 10:12:36;;;;;;;1.70;0.83;;;;;;;18.17;57.83;99440.03;5073368;28;20437;-59
2023/04/13 10:15:37;;;;;;;1.97;0.93;;;;;;;18.20;57.91;99439.25;5053478;28;20823;-59
2023/04/13 10:18:02;;;;;;;2.30;0.83;;;;;;;18.20;57.19;99442.09;4982398;28;21145;-60
2023/04/13 10:20:27;;;;;;;1.90;0.80;;;;;;;18.20;57.61;99444.94;5074557;28;20524;-59
2023/04/13 10:22:53;;;;;;;2.33;1.23;;;;;;;18.22;57.70;99438.84;5054097;28;20520;-60
2023/04/13 10:25:18;;;;;;;2.73;0.80;;;;;;;18.23;57.68;99449.88;5073966;28;20175;-59
2023/04/13 10:27:57;;;;;;;2.53;0.80;;;;;;;18.24;57.82;99447.81;5071732;28;20185;-59
2023/04/13 10:30:23;;;;;;;2.13;0.80;;;;;;;18.22;57.58;99442.50;5036657;28;20246;-59
2023/04/13 10:32:49;;;;;;;1.90;0.90;;;;;;;18.24;57.49;99442.09;5074114;28;20425;-59
2023/04/13 10:35:14;;;;;;;2.27;0.93;;;;;;;18.22;57.75;99448.22;5036987;28;20207;-59
2023/04/13 10:37:41;;;;;;;2.13;0.90;;;;;;;18.21;57.69;99438.00;5074358;28;20183;-59
2023/04/13 10:40:08;;;;;;;1.73;0.70;;;;;;;18.22;57.90;99441.69;5071704;28;21063;-59
2023/04/13 10:42:41;;;;;;;1.90;0.83;;;;;;;18.20;57.85;99433.53;5073216;28;20804;-59
2023/04/13 10:45:17;;;;;;;1.73;0.70;;;;;;;18.20;57.83;99432.69;5033804;28;20422;-59
2023/04/13 10:47:43;;;;;;;1.77;0.63;;;;;;;18.20;57.61;99438.41;5051757;28;20913;-60
2023/04/13 10:50:17;;;;;;;2.20;1.00;;;;;;;18.19;57.92;99429.03;5081069;28;20436;-59
2023/04/13 10:52:56;;;;;;;1.63;0.73;;;;;;;18.20;57.80;99427.81;5077672;28;20214;-60
2023/04/13 10:55:26;;;;;;;1.50;0.87;;;;;;;18.21;57.60;99434.34;5065653;28;20457;-59
2023/04/13 10:57:52;;;;;;;2.00;0.93;;;;;;;18.20;57.71;99422.09;5052826;28;20474;-60
2023/04/13 11:00:20;;;;;;;1.80;0.80;;;;;;;18.20;57.88;99429.84;5084594;28;21300;-59
2023/04/13 11:02:52;;;;;;;2.37;1.03;;;;;;;18.16;57.98;99423.31;5064372;28;20442;-59
2023/04/13 11:05:21;;;;;;;2.30;0.80;;;;;;;18.19;57.73;99425.34;5076343;28;20463;-60
2023/04/13 11:07:48;;;;;;;1.83;0.93;;;;;;;18.16;57.78;99415.53;5073543;28;20448;-59
2023/04/13 11:10:14;;;;;;;1.50;0.60;;;;;;;18.16;57.89;99423.31;5078010;28;20479;-59
2023/04/13 11:12:48;;;;;;;1.60;0.80;;;;;;;18.15;57.78;99421.66;5053108;28;20432;-60
2023/04/13 11:15:21;;;;;;;2.80;1.10;;;;;;;18.14;57.90;99417.16;5051611;28;20981;-59
2023/04/13 11:17:57;;;;;;;2.70;0.97;;;;;;;18.12;57.81;99423.25;5055311;28;20470;-59
2023/04/13 11:20:38;;;;;;;1.63;0.80;;;;;;;18.15;57.77;99410.22;5091027;28;20443;-59
2023/04/13 11:23:05;;;;;;;1.73;0.70;;;;;;;18.16;57.72;99409.81;5086719;28;20936;-58
2023/04/13 11:25:32;;;;;;;1.90;0.73;;;;;;;18.15;57.97;99410.22;5074374;28;20433;-59
2023/04/13 11:28:02;;;;;;;2.23;0.73;;;;;;;18.14;57.78;99417.16;5070682;28;20441;-59
2023/04/13 11:30:28;;;;;;;1.80;0.80;;;;;;;18.14;58.03;99423.69;5067903;28;20504;-59
2023/04/13 11:32:54;;;;;;;2.00;0.70;;;;;;;18.17;57.67;99411.47;5090792;28;20425;-60
2023/04/13 11:35:21;;;;;;;1.60;0.80;;;;;;;18.19;57.69;99425.34;5090764;28;20675;-60